createdAt,value
2022-10-22T00:02:08.429Z,69.12
2022-10-22T00:04:37.265Z,68.65
2022-10-22T00:07:06.885Z,68.57
2022-10-22T00:09:35.839Z,68.76
2022-10-22T00:12:05.102Z,69.03
2022-10-22T00:14:33.980Z,69.03
2022-10-22T00:17:04.953Z,69.20
2022-10-22T00:19:36.624Z,69.16
2022-10-22T00:22:06.171Z,69.42
2022-10-22T00:24:35.408Z,70.06
2022-10-22T00:27:07.180Z,69.88
2022-10-22T00:29:35.590Z,69.92
2022-10-22T00:32:04.018Z,70.08
2022-10-22T00:34:33.555Z,70.13
2022-10-22T00:37:03.001Z,70.23
2022-10-22T00:39:32.336Z,70.07
2022-10-22T00:42:01.743Z,69.77
2022-10-22T00:44:49.648Z,70.48
2022-10-22T00:47:19.265Z,70.56
2022-10-22T00:49:48.383Z,70.71
2022-10-22T00:52:16.681Z,70.89
2022-10-22T00:54:48.049Z,70.55
2022-10-22T00:57:18.224Z,70.67
2022-10-22T00:59:48.618Z,70.87
2022-10-22T01:02:17.781Z,70.79
2022-10-22T01:04:46.762Z,70.88
2022-10-22T01:07:20.780Z,70.75
2022-10-22T01:10:03.594Z,70.26
2022-10-22T01:12:54.389Z,70.23
2022-10-22T01:15:29.627Z,70.37
2022-10-22T01:18:04.916Z,70.86
2022-10-22T01:20:46.007Z,70.99
2022-10-22T01:23:27.308Z,71.00
2022-10-22T01:26:05.527Z,70.98
2022-10-22T01:28:53.851Z,70.85
2022-10-22T01:31:24.173Z,70.89
2022-10-22T01:33:55.054Z,70.91
2022-10-22T01:36:25.036Z,70.81
2022-10-22T01:38:55.353Z,70.99
2022-10-22T01:41:24.751Z,70.76
2022-10-22T01:43:53.888Z,71.10
2022-10-22T01:46:24.930Z,70.88
2022-10-22T01:49:08.174Z,71.10
2022-10-22T01:51:50.396Z,71.37
2022-10-22T01:54:22.455Z,71.32
2022-10-22T01:56:54.469Z,71.10
2022-10-22T01:59:34.905Z,71.09
2022-10-22T02:02:06.550Z,70.97
2022-10-22T02:04:43.931Z,70.96
2022-10-22T02:07:15.397Z,71.43
2022-10-22T02:09:45.219Z,71.28
2022-10-22T02:12:15.489Z,71.28
2022-10-22T02:14:45.866Z,71.48
2022-10-22T02:17:18.666Z,71.42
2022-10-22T02:19:56.472Z,71.50
2022-10-22T02:22:27.065Z,71.10
2022-10-22T02:24:56.657Z,71.33
2022-10-22T02:27:28.835Z,71.37
2022-10-22T02:30:04.011Z,71.77
2022-10-22T02:32:40.231Z,71.55
2022-10-22T02:35:14.274Z,71.70
2022-10-22T02:37:45.106Z,71.81
2022-10-22T02:40:14.682Z,71.83
2022-10-22T02:42:45.592Z,71.98
2022-10-22T02:45:14.606Z,72.06
2022-10-22T02:47:43.946Z,72.11
2022-10-22T02:50:14.811Z,71.97
2022-10-22T02:52:43.899Z,71.62
2022-10-22T02:55:13.020Z,71.96
2022-10-22T02:57:43.198Z,72.02
2022-10-22T03:00:12.862Z,71.74
2022-10-22T03:02:44.141Z,71.84
2022-10-22T03:05:13.169Z,71.86
2022-10-22T03:07:42.368Z,71.25
2022-10-22T03:10:12.092Z,71.61
2022-10-22T03:12:41.512Z,72.21
2022-10-22T03:15:11.176Z,71.93
2022-10-22T03:17:41.026Z,72.18
2022-10-22T03:20:10.667Z,72.35
2022-10-22T03:22:41.409Z,72.19
2022-10-22T03:25:16.223Z,72.37
2022-10-22T03:27:45.601Z,72.57
2022-10-22T03:30:18.379Z,72.10
2022-10-22T03:32:48.889Z,72.39
2022-10-22T03:35:18.214Z,72.36
2022-10-22T03:37:46.588Z,72.16
2022-10-22T03:40:16.103Z,71.99
2022-10-22T03:42:46.393Z,72.11
2022-10-22T03:45:16.343Z,72.07
2022-10-22T03:47:46.060Z,72.38
2022-10-22T03:50:17.608Z,72.76
2022-10-22T03:52:49.410Z,72.79
2022-10-22T03:55:17.811Z,72.68
2022-10-22T03:57:47.642Z,72.37
2022-10-22T04:00:17.920Z,72.69
2022-10-22T04:02:47.803Z,72.69
2022-10-22T04:05:16.750Z,72.75
2022-10-22T04:07:46.048Z,73.10
2022-10-22T04:10:15.055Z,73.22
2022-10-22T04:12:47.159Z,73.35
2022-10-22T04:15:16.129Z,73.21
2022-10-22T04:17:45.579Z,73.43
2022-10-22T04:20:14.888Z,73.75
2022-10-22T04:22:43.780Z,73.60
2022-10-22T04:25:13.045Z,73.51
2022-10-22T04:27:42.769Z,73.29
2022-10-22T04:30:11.450Z,73.60
2022-10-22T04:32:42.792Z,73.32
2022-10-22T04:35:12.204Z,73.32
2022-10-22T04:37:40.733Z,73.62
2022-10-22T04:40:11.694Z,73.40
2022-10-22T04:42:40.956Z,73.29
2022-10-22T04:45:10.403Z,73.45
2022-10-22T04:47:41.862Z,73.17
2022-10-22T04:50:11.449Z,73.45
2022-10-22T04:52:40.754Z,73.52
2022-10-22T04:55:10.438Z,73.49
2022-10-22T04:57:40.021Z,73.54
2022-10-22T05:00:09.832Z,73.55
2022-10-22T05:02:41.056Z,73.36
2022-10-22T05:05:11.198Z,73.51
2022-10-22T05:07:40.757Z,73.51
2022-10-22T05:10:10.387Z,73.48
2022-10-22T05:12:39.322Z,72.92
2022-10-22T05:15:09.836Z,72.99
2022-10-22T05:17:40.020Z,73.18
2022-10-22T05:20:09.538Z,73.32
2022-10-22T05:22:37.712Z,73.24
2022-10-22T05:25:09.606Z,73.44
2022-10-22T05:27:38.699Z,73.29
2022-10-22T05:30:10.329Z,73.56
2022-10-22T05:32:39.363Z,73.08
2022-10-22T05:35:09.777Z,73.22
2022-10-22T05:37:39.287Z,73.29
2022-10-22T05:40:26.463Z,73.20
2022-10-22T05:42:56.730Z,73.10
2022-10-22T05:45:25.819Z,73.25
2022-10-22T05:47:54.834Z,73.45
2022-10-22T05:50:23.838Z,73.49
2022-10-22T05:52:52.106Z,73.50
2022-10-22T05:55:21.199Z,73.47
2022-10-22T05:57:50.711Z,73.76
2022-10-22T06:00:19.938Z,73.86
2022-10-22T06:02:52.128Z,73.97
2022-10-22T06:05:20.377Z,74.07
2022-10-22T06:07:49.677Z,73.93
2022-10-22T06:10:19.937Z,73.72
2022-10-22T06:12:49.843Z,73.61
2022-10-22T06:15:19.479Z,73.79
2022-10-22T06:17:49.127Z,73.71
2022-10-22T06:20:18.411Z,73.46
2022-10-22T06:22:48.682Z,73.52
2022-10-22T06:25:18.087Z,73.38
2022-10-22T06:27:51.249Z,73.32
2022-10-22T06:30:20.565Z,73.30
2022-10-22T06:32:49.950Z,73.13
2022-10-22T06:35:18.845Z,72.84
2022-10-22T06:37:47.859Z,72.51
2022-10-22T06:40:19.000Z,72.21
2022-10-22T06:42:48.609Z,72.00
2022-10-22T06:45:18.503Z,71.56
2022-10-22T06:47:50.209Z,70.88
2022-10-22T06:50:22.263Z,71.03
2022-10-22T06:52:51.411Z,70.86
2022-10-22T06:55:19.662Z,70.47
2022-10-22T06:57:50.992Z,70.32
2022-10-22T07:00:22.651Z,70.59
2022-10-22T07:02:56.508Z,70.20
2022-10-22T07:05:27.801Z,68.71
2022-10-22T07:07:57.684Z,67.89
2022-10-22T07:10:30.677Z,68.38
2022-10-22T07:13:02.397Z,68.43
2022-10-22T07:15:32.768Z,67.79
2022-10-22T07:18:05.283Z,66.84
2022-10-22T07:20:34.342Z,66.22
2022-10-22T07:23:03.217Z,65.94
2022-10-22T07:25:32.315Z,65.57
2022-10-22T07:28:01.629Z,65.21
2022-10-22T07:30:30.717Z,64.78
2022-10-22T07:32:59.643Z,64.47
2022-10-22T07:35:30.041Z,63.82
2022-10-22T07:38:02.181Z,62.59
2022-10-22T07:40:31.172Z,61.78
2022-10-22T07:43:00.181Z,62.19
2022-10-22T07:45:29.112Z,62.12
2022-10-22T07:47:57.933Z,61.52
2022-10-22T07:50:27.322Z,61.52
2022-10-22T07:52:58.193Z,60.73
2022-10-22T07:55:27.551Z,60.87
2022-10-22T07:57:56.075Z,60.81
2022-10-22T08:00:25.629Z,60.78
2022-10-22T08:02:54.972Z,60.31
2022-10-22T08:05:24.244Z,60.49
2022-10-22T08:07:53.799Z,59.89
2022-10-22T08:10:22.673Z,59.91
2022-10-22T08:12:52.492Z,59.56
2022-10-22T08:15:22.623Z,59.39
2022-10-22T08:17:52.209Z,59.46
2022-10-22T08:20:21.199Z,59.01
2022-10-22T08:22:50.559Z,58.27
2022-10-22T08:25:19.761Z,58.58
2022-10-22T08:27:51.234Z,59.35
2022-10-22T08:30:20.280Z,59.22
2022-10-22T08:32:53.052Z,58.04
2022-10-22T08:35:23.161Z,57.62
2022-10-22T08:37:52.837Z,57.30
2022-10-22T08:40:27.410Z,57.67
2022-10-22T08:43:15.241Z,55.91
2022-10-22T08:46:11.199Z,54.67
2022-10-22T08:48:54.608Z,53.41
2022-10-22T08:51:34.818Z,53.37
2022-10-22T08:54:17.641Z,51.32
2022-10-22T08:56:51.570Z,51.26
2022-10-22T08:59:27.302Z,49.37
2022-10-22T09:01:58.396Z,48.86
2022-10-22T09:04:46.559Z,49.84
2022-10-22T09:07:15.602Z,49.81
2022-10-22T09:09:48.709Z,48.81
2022-10-22T09:12:20.357Z,49.79
2022-10-22T09:14:49.820Z,48.97
2022-10-22T09:17:27.524Z,49.73
2022-10-22T09:20:04.552Z,49.25
2022-10-22T09:22:52.967Z,48.49
2022-10-22T09:25:28.314Z,46.78
2022-10-22T09:27:58.994Z,47.48
2022-10-22T09:30:30.215Z,47.15
2022-10-22T09:33:09.942Z,47.58
2022-10-22T09:35:48.338Z,47.23
2022-10-22T09:38:20.365Z,47.93
2022-10-22T09:40:51.417Z,47.82
2022-10-22T09:43:20.952Z,48.08
2022-10-22T09:45:57.353Z,47.94
2022-10-22T09:48:31.737Z,46.61
2022-10-22T09:51:06.073Z,46.67
2022-10-22T09:53:39.478Z,47.12
2022-10-22T09:56:16.975Z,47.59
2022-10-22T09:58:49.801Z,46.67
2022-10-22T10:01:20.990Z,47.23
2022-10-22T10:03:50.694Z,47.22
2022-10-22T10:06:21.094Z,46.90
2022-10-22T10:08:50.748Z,47.66
2022-10-22T10:11:29.259Z,47.50
2022-10-22T10:14:15.567Z,47.00
2022-10-22T10:17:04.933Z,46.71
2022-10-22T10:19:53.750Z,46.41
2022-10-22T10:22:29.736Z,46.18
2022-10-22T10:25:17.496Z,45.79
2022-10-22T10:27:52.711Z,45.46
2022-10-22T10:30:24.420Z,45.26
2022-10-22T10:33:16.216Z,44.08
2022-10-22T10:35:53.515Z,44.39
2022-10-22T10:38:32.112Z,44.83
2022-10-22T10:41:08.396Z,44.81
2022-10-22T10:43:44.595Z,45.00
2022-10-22T10:46:19.496Z,43.56
2022-10-22T10:48:48.984Z,43.97
2022-10-22T10:51:27.257Z,42.50
2022-10-22T10:54:08.660Z,41.65
2022-10-22T10:56:42.801Z,42.09
2022-10-22T10:59:19.874Z,42.35
2022-10-22T11:01:49.449Z,42.20
2022-10-22T11:04:48.341Z,42.19
2022-10-22T11:07:39.911Z,41.21
2022-10-22T11:10:23.446Z,40.00
2022-10-22T11:12:56.021Z,40.20
2022-10-22T11:15:35.457Z,39.94
2022-10-22T11:18:18.032Z,40.05
2022-10-22T11:21:02.446Z,39.71
2022-10-22T11:23:46.207Z,39.36
2022-10-22T11:26:35.616Z,39.33
2022-10-22T11:29:05.143Z,39.23
2022-10-22T11:31:34.623Z,39.46
2022-10-22T11:34:09.977Z,38.06
2022-10-22T11:36:52.926Z,37.90
2022-10-22T11:39:39.911Z,37.46
2022-10-22T11:42:16.938Z,37.27
2022-10-22T11:47:26.315Z,37.87
2022-10-22T11:49:57.713Z,38.12
2022-10-22T11:52:38.627Z,39.30
2022-10-22T11:55:26.667Z,39.55
2022-10-22T11:57:57.217Z,40.55
2022-10-22T12:00:29.389Z,40.79
2022-10-22T12:03:24.720Z,40.95
2022-10-22T12:06:06.196Z,40.72
2022-10-22T12:08:42.924Z,41.59
2022-10-22T12:11:15.762Z,42.22
2022-10-22T12:14:01.553Z,42.49
2022-10-22T12:16:54.541Z,42.93
2022-10-22T12:19:23.986Z,43.26
2022-10-22T12:21:56.430Z,43.47
2022-10-22T12:24:26.623Z,43.44
2022-10-22T12:26:56.107Z,43.43
2022-10-22T12:29:25.957Z,43.71
2022-10-22T12:31:56.316Z,43.99
2022-10-22T12:34:25.762Z,44.46
2022-10-22T12:36:55.472Z,44.73
2022-10-22T12:39:28.652Z,44.68
2022-10-22T12:41:58.258Z,45.11
2022-10-22T12:44:28.119Z,45.24
2022-10-22T12:46:57.419Z,45.57
2022-10-22T12:49:34.194Z,45.61
2022-10-22T12:52:10.857Z,45.97
2022-10-22T12:54:44.746Z,46.32
2022-10-22T12:57:15.122Z,46.69
2022-10-22T12:59:49.507Z,46.75
2022-10-22T13:02:25.067Z,46.85
2022-10-22T13:05:12.459Z,47.20
2022-10-22T13:07:47.332Z,47.39
2022-10-22T13:10:19.455Z,47.90
2022-10-22T13:12:54.517Z,48.54
2022-10-22T13:15:44.097Z,48.90
2022-10-22T13:18:18.182Z,49.07
2022-10-22T13:21:02.198Z,50.24
2022-10-22T13:23:32.591Z,50.52
2022-10-22T13:26:03.823Z,50.49
2022-10-22T13:28:32.637Z,50.66
2022-10-22T13:31:09.491Z,50.02
2022-10-22T13:33:40.756Z,49.88
2022-10-22T13:36:14.790Z,50.10
2022-10-22T13:38:46.908Z,50.22
2022-10-22T13:41:26.398Z,50.70
2022-10-22T13:43:56.114Z,50.69
2022-10-22T13:46:26.074Z,50.92
2022-10-22T13:48:56.523Z,50.71
2022-10-22T13:51:32.483Z,50.60
2022-10-22T13:54:02.106Z,50.89
2022-10-22T13:56:31.047Z,51.00
2022-10-22T13:58:59.700Z,50.77
2022-10-22T14:01:29.278Z,50.96
2022-10-22T14:04:02.109Z,51.66
2022-10-22T14:06:31.949Z,51.73
2022-10-22T14:09:02.442Z,52.35
2022-10-22T14:11:33.144Z,52.54
2022-10-22T14:14:05.485Z,52.61
2022-10-22T14:16:35.366Z,52.18
2022-10-22T14:19:07.123Z,53.24
2022-10-22T14:21:37.431Z,54.05
2022-10-22T14:24:08.393Z,53.77
2022-10-22T14:26:40.453Z,54.71
2022-10-22T14:29:10.999Z,54.83
2022-10-22T14:31:43.233Z,55.09
2022-10-22T14:34:15.036Z,55.66
2022-10-22T14:36:44.395Z,55.74
2022-10-22T14:39:14.196Z,56.02
2022-10-22T14:41:43.717Z,56.25
2022-10-22T14:44:14.664Z,56.02
2022-10-22T14:46:44.627Z,56.14
2022-10-22T14:49:13.819Z,56.50
2022-10-22T14:51:42.770Z,57.06
2022-10-22T14:54:11.831Z,57.76
2022-10-22T14:56:40.696Z,58.31
2022-10-22T14:59:10.055Z,58.25
2022-10-22T15:01:39.732Z,58.21
2022-10-22T15:04:09.069Z,58.86
2022-10-22T15:06:37.969Z,58.79
2022-10-22T15:09:07.255Z,59.06
2022-10-22T15:11:35.701Z,59.02
2022-10-22T15:14:05.751Z,58.70
2022-10-22T15:16:35.125Z,59.06
2022-10-22T15:19:04.565Z,59.65
2022-10-22T15:21:34.019Z,59.78
2022-10-22T15:24:03.467Z,60.24
2022-10-22T15:26:33.044Z,60.54
2022-10-22T15:29:04.414Z,61.46
2022-10-22T15:31:49.505Z,61.49
2022-10-22T15:34:23.656Z,60.61
2022-10-22T15:36:54.364Z,60.92
2022-10-22T15:39:23.759Z,61.47
2022-10-22T15:41:53.286Z,61.88
2022-10-22T15:44:23.669Z,61.16
2022-10-22T15:46:53.406Z,61.24
2022-10-22T15:49:22.735Z,61.33
2022-10-22T15:51:51.710Z,61.70
2022-10-22T15:54:23.046Z,61.81
2022-10-22T15:56:52.507Z,61.59
2022-10-22T15:59:21.348Z,61.99
2022-10-22T16:01:50.803Z,61.92
2022-10-22T16:04:20.133Z,62.58
2022-10-22T16:06:49.955Z,62.68
2022-10-22T16:09:21.129Z,63.33
2022-10-22T16:11:50.786Z,62.83
2022-10-22T16:14:20.863Z,62.84
2022-10-22T16:16:51.579Z,63.97
2022-10-22T16:19:22.723Z,63.67
2022-10-22T16:21:52.819Z,63.53
2022-10-22T16:24:22.222Z,63.32
2022-10-22T16:26:53.542Z,63.19
2022-10-22T16:29:23.345Z,63.44
2022-10-22T16:31:52.378Z,63.78
2022-10-22T16:34:21.585Z,64.03
2022-10-22T16:39:21.676Z,64.41
2022-10-22T16:41:50.662Z,64.56
2022-10-22T16:44:18.970Z,64.32
2022-10-22T16:46:48.150Z,64.41
2022-10-22T16:49:17.186Z,64.04
2022-10-22T16:51:46.039Z,64.20
2022-10-22T16:54:15.995Z,64.56
2022-10-22T16:56:45.120Z,64.75
2022-10-22T16:59:14.731Z,64.91
2022-10-22T17:01:43.921Z,65.07
2022-10-22T17:04:13.281Z,65.32
2022-10-22T17:06:42.264Z,65.01
2022-10-22T17:09:12.361Z,65.09
2022-10-22T17:11:42.567Z,65.16
2022-10-22T17:14:13.661Z,65.49
2022-10-22T17:16:41.900Z,65.42
2022-10-22T17:19:15.438Z,65.20
2022-10-22T17:21:44.684Z,65.44
2022-10-22T17:24:13.878Z,65.12
2022-10-22T17:26:43.683Z,65.71
2022-10-22T17:29:13.957Z,65.80
2022-10-22T17:31:43.460Z,66.18
2022-10-22T17:34:17.850Z,65.83
2022-10-22T17:36:46.272Z,65.44
2022-10-22T17:39:18.941Z,65.73
2022-10-22T17:41:48.277Z,65.70
2022-10-22T17:44:19.178Z,65.55
2022-10-22T17:46:49.909Z,65.94
2022-10-22T17:49:20.541Z,66.34
2022-10-22T17:51:49.731Z,66.46
2022-10-22T17:54:20.596Z,66.35
2022-10-22T17:56:49.612Z,66.35
2022-10-22T17:59:22.817Z,66.91
2022-10-22T18:01:55.792Z,66.58
2022-10-22T18:04:30.224Z,66.69
2022-10-22T18:06:59.711Z,67.06
2022-10-22T18:09:30.799Z,66.91
2022-10-22T18:12:00.045Z,67.32
2022-10-22T18:14:29.644Z,66.96
2022-10-22T18:17:01.630Z,66.85
2022-10-22T18:19:31.111Z,67.37
2022-10-22T18:22:00.944Z,66.98
2022-10-22T18:24:32.241Z,66.99
2022-10-22T18:27:01.542Z,67.20
2022-10-22T18:29:40.819Z,67.53
2022-10-22T18:32:13.096Z,67.49
2022-10-22T18:34:42.956Z,67.14
2022-10-22T18:37:12.297Z,67.84
2022-10-22T18:39:41.396Z,67.71
2022-10-22T18:42:10.602Z,67.74
2022-10-22T18:44:39.939Z,67.94
2022-10-22T18:47:09.029Z,68.12
2022-10-22T18:49:39.116Z,67.50
2022-10-22T18:52:08.105Z,68.00
2022-10-22T18:54:37.434Z,67.80
2022-10-22T18:57:06.593Z,67.66
2022-10-22T18:59:35.784Z,67.66
2022-10-22T19:02:04.822Z,67.53
2022-10-22T19:04:37.377Z,67.59
2022-10-22T19:07:06.398Z,68.25
2022-10-22T19:09:35.543Z,67.87
2022-10-22T19:12:04.730Z,68.10
2022-10-22T19:14:33.508Z,67.61
2022-10-22T19:17:03.030Z,68.08
2022-10-22T19:19:31.725Z,68.31
2022-10-22T19:22:01.463Z,68.12
2022-10-22T19:24:30.789Z,69.18
2022-10-22T19:27:00.015Z,68.98
2022-10-22T19:29:29.390Z,69.42
2022-10-22T19:31:58.723Z,69.27
2022-10-22T19:34:29.785Z,69.82
2022-10-22T19:36:59.099Z,69.75
2022-10-22T19:39:28.718Z,70.09
2022-10-22T19:41:57.897Z,70.22
2022-10-22T19:44:26.923Z,70.63
2022-10-22T19:46:57.789Z,70.38
2022-10-22T19:49:26.881Z,71.23
2022-10-22T19:51:56.043Z,70.91
2022-10-22T19:54:25.026Z,71.63
2022-10-22T19:56:54.070Z,71.18
2022-10-22T19:59:27.309Z,71.14
2022-10-22T20:01:58.638Z,70.82
2022-10-22T20:04:28.404Z,71.06
2022-10-22T20:06:57.836Z,71.38
2022-10-22T20:09:27.067Z,71.39
2022-10-22T20:11:55.727Z,71.82
2022-10-22T20:14:24.824Z,71.61
2022-10-22T20:16:54.181Z,71.94
2022-10-22T20:19:26.361Z,72.20
2022-10-22T20:21:55.350Z,71.76
2022-10-22T20:24:24.583Z,71.95
2022-10-22T20:26:54.047Z,72.36
2022-10-22T20:29:25.333Z,71.56
2022-10-22T20:31:54.579Z,71.40
2022-10-22T20:34:23.657Z,72.17
2022-10-22T20:36:53.009Z,72.14
2022-10-22T20:39:21.995Z,71.77
2022-10-22T20:41:51.619Z,72.61
2022-10-22T20:44:22.485Z,73.09
2022-10-22T20:46:51.934Z,73.14
2022-10-22T20:49:21.376Z,73.13
2022-10-22T20:51:50.636Z,73.03
2022-10-22T20:54:20.416Z,72.45
2022-10-22T20:56:48.661Z,72.63
2022-10-22T20:59:18.377Z,73.45
2022-10-22T21:01:48.676Z,72.99
2022-10-22T21:04:19.830Z,72.76
2022-10-22T21:06:50.553Z,73.01
2022-10-22T21:09:20.308Z,73.01
2022-10-22T21:11:49.857Z,73.39
2022-10-22T21:14:20.493Z,73.41
2022-10-22T21:16:50.672Z,73.05
2022-10-22T21:19:20.438Z,75.75
2022-10-22T21:21:49.934Z,75.78
2022-10-22T21:24:19.287Z,75.01
2022-10-22T21:26:48.386Z,74.73
2022-10-22T21:29:16.505Z,75.41
2022-10-22T21:31:45.531Z,75.06
2022-10-22T21:34:15.217Z,75.37
2022-10-22T21:36:45.057Z,75.51
2022-10-22T21:39:14.149Z,75.69
2022-10-22T21:41:43.242Z,75.84
2022-10-22T21:44:12.737Z,75.74
2022-10-22T21:46:41.694Z,75.38
2022-10-22T21:49:11.206Z,75.33
2022-10-22T21:51:39.563Z,75.33
2022-10-22T21:54:08.631Z,75.85
2022-10-22T21:56:39.800Z,75.58
2022-10-22T21:59:11.249Z,75.79
2022-10-22T22:01:40.582Z,76.13
2022-10-22T22:04:09.563Z,75.67
2022-10-22T22:06:38.858Z,75.19
2022-10-22T22:09:08.208Z,75.20
2022-10-22T22:11:37.699Z,74.98
2022-10-22T22:14:05.976Z,75.71
2022-10-22T22:16:36.295Z,76.25
2022-10-22T22:19:07.215Z,75.84
2022-10-22T22:21:39.513Z,76.61
2022-10-22T22:24:11.230Z,76.83
2022-10-22T22:26:40.820Z,76.52
2022-10-22T22:29:10.679Z,77.10
2022-10-22T22:31:40.703Z,77.04
2022-10-22T22:34:14.490Z,77.02
2022-10-22T22:36:45.919Z,76.92
2022-10-22T22:39:16.620Z,76.74
2022-10-22T22:41:46.899Z,76.88
2022-10-22T22:44:16.582Z,76.98
2022-10-22T22:46:45.888Z,77.32
2022-10-22T22:49:16.228Z,77.37
2022-10-22T22:51:45.997Z,77.51
2022-10-22T22:54:15.454Z,77.45
2022-10-22T22:56:44.496Z,77.72
2022-10-22T22:59:13.879Z,77.60
2022-10-22T23:01:43.592Z,77.33
2022-10-22T23:04:16.603Z,77.53
2022-10-22T23:06:46.679Z,77.52
2022-10-22T23:09:17.074Z,78.22
2022-10-22T23:11:46.732Z,78.59
2022-10-22T23:14:17.383Z,77.81
2022-10-22T23:16:48.847Z,78.02
2022-10-22T23:19:20.081Z,78.53
2022-10-22T23:21:50.771Z,78.81
2022-10-22T23:24:21.644Z,78.91
2022-10-22T23:26:51.788Z,78.76
2022-10-22T23:29:25.482Z,79.46
2022-10-22T23:31:59.270Z,79.35
2022-10-22T23:34:28.994Z,79.53
2022-10-22T23:36:58.723Z,79.50
2022-10-22T23:39:29.124Z,80.07
2022-10-22T23:41:58.441Z,80.06
2022-10-22T23:44:27.545Z,80.11
2022-10-22T23:46:56.999Z,80.67
2022-10-22T23:49:26.123Z,80.38
2022-10-22T23:51:55.123Z,80.39
2022-10-22T23:54:24.459Z,80.17
2022-10-22T23:56:53.976Z,80.18
2022-10-22T23:59:23.305Z,80.17
